McKinney's Hourly Summary for Wednesday, May 16, 2018
Hour Temp
(f)
RH
(%)
Solar Rad.
(MJ/m2)
Rainfall
(in)
Wind
(mph)
5/16/2018 12:00 AM 69 75 0 0 0.23
5/16/2018 1:00 AM 67 80 0 0 0.17
5/16/2018 2:00 AM 66 82 0 0 0.08
5/16/2018 3:00 AM 65 86 0 0 0.16
5/16/2018 4:00 AM 65 87 0 0 1.05
5/16/2018 5:00 AM 65 87 0 0 1.55
5/16/2018 6:00 AM 64 96 0 0 2.44
5/16/2018 7:00 AM 65 90 0.04 0 0.54
5/16/2018 8:00 AM 68 73 0.42 0 0.22
5/16/2018 9:00 AM 71 62 1.2 0 1.46
5/16/2018 10:00 AM 76 56 1.87 0 1.12
5/16/2018 11:00 AM 79 55 2.28 0 1.68
5/16/2018 12:00 PM 80 54 1.5 0 0.98
5/16/2018 1:00 PM 82 53 2.57 0 2.35
5/16/2018 2:00 PM 84 48 2.93 0 2.62
5/16/2018 3:00 PM 87 40 2.96 0 3.02
5/16/2018 4:00 PM 88 37 2.44 0 3.31
5/16/2018 5:00 PM 88 39 2.01 0 4
5/16/2018 6:00 PM 87 38 1.45 0 3.19
5/16/2018 7:00 PM 86 44 0.87 0 2.29
5/16/2018 8:00 PM 83 48 0.24 0 2
5/16/2018 9:00 PM 78 54 0.01 0 0.8
5/16/2018 10:00 PM 75 67 0 0 0.03
5/16/2018 11:00 PM 72 72 0 0 0
Data Summary 75 63 22.79 0.00 1.47